Time;durP1;ratioP1;P1;durP2;ratioP2;P2;SDS_P1;SDS_P2;PMS_P1;PMS_P2;Temp;Humidity;BMP_temperature;BMP_pressure;BME280_temperature;BME280_humidity;BME280_pressure;Samples;Min_cycle;Max_cycle;Signal;HPM_P1;HPM_P2
2021/08/09 00:02:09;;;;;;;;;2.00;1.00;;;;;19.20;58.50;101450.88;4982344;28;45454;-82
2021/08/09 00:04:37;;;;;;;;;1.00;1.00;;;;;19.23;58.89;101461.38;4976449;28;45132;-89
2021/08/09 00:07:03;;;;;;;;;2.25;1.00;;;;;19.24;58.58;101455.06;4981050;28;45384;-88
2021/08/09 00:09:28;;;;;;;;;1.75;0.75;;;;;19.27;58.92;101456.72;4962483;28;45532;-84
2021/08/09 00:11:53;;;;;;;;;1.00;1.00;;;;;19.26;58.40;101458.50;4962561;28;46238;-83
2021/08/09 00:14:19;;;;;;;;;2.00;0.50;;;;;19.21;58.59;101455.28;4962417;28;45425;-84
2021/08/09 00:16:44;;;;;;;;;1.25;1.25;;;;;19.21;58.65;101455.28;4962667;28;45323;-84
2021/08/09 00:19:10;;;;;;;;;2.00;1.00;;;;;19.20;58.85;101446.41;4962697;28;45310;-84
2021/08/09 00:21:35;;;;;;;;;2.25;1.00;;;;;19.18;58.69;101436.81;4962975;28;45438;-83
2021/08/09 00:24:01;;;;;;;;;1.00;1.00;;;;;19.20;58.76;101443.75;4977636;28;45347;-83
2021/08/09 00:26:29;;;;;;;;;1.00;1.00;;;;;19.17;58.62;101429.72;4980569;28;45192;-89
2021/08/09 00:28:56;;;;;;;;;1.00;1.00;;;;;19.22;58.73;101433.00;4952096;28;46072;-92
2021/08/09 00:31:22;;;;;;;;;1.00;1.00;;;;;19.24;58.19;101436.44;4982203;28;46369;-91
2021/08/09 00:33:47;;;;;;;;;2.00;2.00;;;;;19.23;58.75;101440.91;4967981;28;45307;-92
2021/08/09 00:36:13;;;;;;;;;1.00;0.50;;;;;19.27;58.70;101440.72;4963708;28;45496;-84
2021/08/09 00:38:38;;;;;;;;;1.00;1.00;;;;;19.27;58.76;101440.72;4966949;28;45432;-85
2021/08/09 00:41:04;;;;;;;;;1.25;0.00;;;;;19.26;59.28;101441.69;4969981;28;45394;-85
2021/08/09 00:43:29;;;;;;;;;3.00;2.00;;;;;19.24;59.13;101447.09;4981570;28;45350;-85
2021/08/09 00:45:56;;;;;;;;;1.00;1.00;;;;;19.21;58.98;101449.94;4981847;28;45463;-84
2021/08/09 00:48:21;;;;;;;;;2.00;1.00;;;;;19.18;58.97;101450.13;4980334;28;46220;-84
2021/08/09 00:50:47;;;;;;;;;2.00;1.50;;;;;19.08;59.19;101447.97;4971009;28;45287;-85
2021/08/09 00:53:12;;;;;;;;;3.50;2.75;;;;;19.06;58.79;101452.50;4970751;28;45524;-94
2021/08/09 00:55:42;;;;;;;;;2.00;2.00;;;;;19.05;59.30;101447.28;4970813;28;45213;-96
2021/08/09 00:58:08;;;;;;;;;2.00;1.25;;;;;18.97;58.99;101437.91;4970684;28;45225;-96
2021/08/09 01:00:33;;;;;;;;;1.00;1.00;;;;;18.95;59.57;101430.97;4964647;28;47064;-84
2021/08/09 01:02:58;;;;;;;;;1.75;0.25;;;;;19.03;59.46;101441.19;4949149;28;45296;-85
2021/08/09 01:05:24;;;;;;;;;1.00;1.00;;;;;19.04;59.39;101433.09;4945011;28;45885;-82
2021/08/09 01:08:13;;;;;;;;;1.00;0.75;;;;;19.08;59.04;101444.44;4973822;28;45363;-83
2021/08/09 01:10:41;;;;;;;;;1.00;1.00;;;;;19.03;58.96;101428.72;4970072;28;45471;-83
2021/08/09 01:13:27;;;;;;;;;1.75;1.00;;;;;18.95;59.04;101429.16;4961621;28;45334;-82
2021/08/09 01:16:03;;;;;;;;;1.50;0.50;;;;;18.97;59.05;101426.41;4961845;28;45302;-83
2021/08/09 01:18:34;;;;;;;;;3.00;1.75;;;;;18.97;59.12;101416.63;4974466;28;45590;-81
2021/08/09 01:21:00;;;;;;;;;1.00;1.00;;;;;18.98;59.37;101420.13;4979124;28;45285;-87
2021/08/09 01:23:44;;;;;;;;;3.25;1.75;;;;;18.92;59.67;101417.81;4966442;28;45610;-83
2021/08/09 01:26:19;;;;;;;;;0.75;0.75;;;;;18.85;59.27;101412.00;4961681;28;45240;-88
2021/08/09 01:28:45;;;;;;;;;0.50;0.50;;;;;18.85;59.28;101422.66;4943898;28;45567;-87
2021/08/09 01:31:14;;;;;;;;;1.00;1.00;;;;;18.78;59.58;101422.16;4961682;28;45453;-85
2021/08/09 01:33:41;;;;;;;;;1.00;1.00;;;;;18.71;59.15;101421.66;4974215;28;45475;-82
2021/08/09 01:36:08;;;;;;;;;3.00;1.00;;;;;18.63;60.26;101422.06;4969684;28;45263;-83
2021/08/09 01:38:35;;;;;;;;;1.25;1.00;;;;;18.58;59.76;101428.59;4961190;28;45274;-82
2021/08/09 01:41:02;;;;;;;;;0.50;0.50;;;;;18.51;60.10;101420.09;4968936;28;45378;-84
2021/08/09 01:43:29;;;;;;;;;1.75;1.75;;;;;18.52;59.75;101411.19;4967222;28;45416;-89
2021/08/09 01:45:56;;;;;;;;;1.50;1.50;;;;;18.59;60.15;101419.69;4961494;28;45354;-85
2021/08/09 01:48:22;;;;;;;;;2.50;2.00;;;;;18.54;60.54;101411.97;4970031;28;45610;-83
2021/08/09 01:50:49;;;;;;;;;1.00;1.00;;;;;18.52;59.86;101421.84;4979911;28;45381;-86
2021/08/09 01:53:15;;;;;;;;;4.00;1.00;;;;;18.58;59.96;101424.13;4976581;28;45540;-92
2021/08/09 01:55:41;;;;;;;;;1.00;1.00;;;;;18.56;60.76;101428.69;4956875;28;45489;-93
2021/08/09 01:58:06;;;;;;;;;1.00;1.00;;;;;18.54;59.73;101434.09;4950443;28;45959;-93
2021/08/09 02:00:32;;;;;;;;;1.50;1.25;;;;;18.55;60.35;101426.97;4980970;28;45423;-92
2021/08/09 02:02:58;;;;;;;;;1.25;1.00;;;;;18.57;60.34;101419.75;4951993;28;45747;-92
2021/08/09 02:05:25;;;;;;;;;0.75;0.75;;;;;18.60;60.43;101414.25;4968203;28;45326;-92
2021/08/09 02:07:51;;;;;;;;;2.00;1.00;;;;;18.67;59.97;101418.28;4957823;28;46335;-92
2021/08/09 02:10:20;;;;;;;;;1.75;1.75;;;;;18.72;60.16;101418.03;4952470;28;48060;-89
2021/08/09 02:13:11;;;;;;;;;0.75;0.75;;;;;18.81;59.83;101427.31;4977390;28;45403;-90
2021/08/09 02:15:44;;;;;;;;;1.00;1.00;;;;;18.83;59.98;101425.41;4979141;28;45271;-90
2021/08/09 02:18:39;;;;;;;;;2.25;1.00;;;;;18.89;59.40;101425.03;4973188;28;45446;-92
2021/08/09 02:21:10;;;;;;;;;3.00;0.50;;;;;18.92;59.43;101429.34;4956815;28;47650;-92
2021/08/09 02:23:58;;;;;;;;;2.75;1.00;;;;;18.97;59.57;101431.72;4974730;28;45492;-91
2021/08/09 02:26:31;;;;;;;;;1.00;1.00;;;;;18.95;59.71;101425.63;4956693;28;45548;-92
2021/08/09 02:29:04;;;;;;;;;0.75;0.75;;;;;18.97;59.28;101427.28;4968511;28;45361;-93
2021/08/09 02:31:32;;;;;;;;;1.25;1.25;;;;;19.03;59.11;101419.88;4978713;28;48164;-91
2021/08/09 02:33:59;;;;;;;;;1.00;1.00;;;;;19.03;59.00;101415.41;4954431;28;45468;-87
2021/08/09 02:36:25;;;;;;;;;1.75;0.75;;;;;19.07;59.03;101419.59;4963290;28;45310;-87
2021/08/09 02:38:50;;;;;;;;;4.25;3.00;;;;;19.09;58.87;101414.16;4966264;28;45246;-89
2021/08/09 02:41:17;;;;;;;;;1.00;1.00;;;;;19.07;58.97;101411.59;4971744;28;47132;-88
2021/08/09 02:43:42;;;;;;;;;1.50;1.50;;;;;19.10;59.08;101421.22;4960749;28;45285;-90
2021/08/09 02:46:08;;;;;;;;;2.75;1.25;;;;;19.11;58.57;101415.78;4943115;28;45272;-85
2021/08/09 02:48:35;;;;;;;;;1.00;1.00;;;;;19.15;58.74;101415.63;4960779;28;45393;-87
2021/08/09 02:51:01;;;;;;;;;1.75;1.75;;;;;19.15;58.39;101418.28;4952812;28;48678;-87
2021/08/09 02:53:27;;;;;;;;;2.75;2.00;;;;;19.15;58.66;101428.94;4950725;28;45627;-87
2021/08/09 02:55:59;;;;;;;;;1.00;1.00;;;;;19.15;58.48;101428.94;4973194;28;45371;-87
2021/08/09 02:58:24;;;;;;;;;0.25;0.25;;;;;19.16;58.90;101425.34;4977626;28;46819;-88
2021/08/09 03:00:54;;;;;;;;;2.00;2.00;;;;;19.15;58.73;101426.28;4978350;28;47274;-87
2021/08/09 03:03:26;;;;;;;;;1.75;1.75;;;;;19.08;58.40;101423.13;4979921;28;46181;-85
2021/08/09 03:05:54;;;;;;;;;3.00;1.00;;;;;19.10;58.88;101432.75;4953152;28;45414;-85
2021/08/09 03:08:20;;;;;;;;;2.25;1.75;;;;;19.07;59.02;101429.38;4962100;28;45398;-85
2021/08/09 03:10:47;;;;;;;;;1.00;1.00;;;;;19.04;58.44;101427.75;4963269;28;45455;-86
2021/08/09 03:13:13;;;;;;;;;1.00;1.00;;;;;19.04;58.41;101433.09;4969128;28;45488;-86
2021/08/09 03:15:38;;;;;;;;;1.00;1.00;;;;;19.00;58.62;101436.88;4983019;28;45511;-86
2021/08/09 03:18:04;;;;;;;;;1.75;1.75;;;;;18.99;59.00;101430.69;4982929;28;45219;-84
2021/08/09 03:20:30;;;;;;;;;1.00;1.00;;;;;18.98;58.69;101428.13;4976849;28;46460;-84
2021/08/09 03:22:55;;;;;;;;;1.50;1.50;;;;;18.98;59.02;101423.66;4968179;28;45318;-85
2021/08/09 03:25:21;;;;;;;;;2.00;1.25;;;;;18.99;58.67;101435.16;4963114;28;45500;-82
2021/08/09 03:27:46;;;;;;;;;0.00;0.00;;;;;18.99;58.87;101433.34;4945895;28;45418;-82
2021/08/09 03:30:12;;;;;;;;;0.00;0.00;;;;;18.98;58.54;101428.13;4963008;28;46166;-82
2021/08/09 03:32:37;;;;;;;;;2.00;0.00;;;;;18.95;59.04;101430.97;4963390;28;45390;-82
2021/08/09 03:35:03;;;;;;;;;1.00;1.00;;;;;18.93;58.99;101444.38;4963486;28;45525;-88
2021/08/09 03:37:28;;;;;;;;;1.00;1.00;;;;;18.93;58.68;101439.06;4963493;28;45720;-90
2021/08/09 03:39:54;;;;;;;;;1.00;0.50;;;;;18.92;58.91;101437.31;4962813;28;46005;-79
2021/08/09 03:42:20;;;;;;;;;2.25;2.00;;;;;18.94;58.75;101443.41;4982705;28;45420;-81
2021/08/09 03:44:46;;;;;;;;;1.25;1.00;;;;;18.93;58.48;101443.50;4982490;28;45533;-82
2021/08/09 03:47:11;;;;;;;;;1.75;0.75;;;;;18.92;58.68;101449.78;4971290;28;45582;-83
2021/08/09 03:49:36;;;;;;;;;2.50;1.25;;;;;18.92;58.77;101450.66;4979113;28;45174;-83
2021/08/09 03:52:02;;;;;;;;;1.00;1.00;;;;;18.92;58.82;101445.31;4964504;28;45358;-83
2021/08/09 03:54:27;;;;;;;;;0.25;0.25;;;;;18.92;58.77;101440.00;4978085;28;45281;-82
2021/08/09 03:56:53;;;;;;;;;1.00;1.00;;;;;18.92;58.84;101439.13;4962979;28;45446;-83
2021/08/09 03:59:18;;;;;;;;;1.00;1.00;;;;;18.93;58.68;101436.41;4962389;28;46321;-90
2021/08/09 04:01:46;;;;;;;;;2.50;2.00;;;;;18.99;59.01;101440.47;4945367;28;45312;-87
2021/08/09 04:04:12;;;;;;;;;0.25;0.25;;;;;18.97;58.74;101440.59;4962768;28;45295;-87
2021/08/09 04:06:37;;;;;;;;;1.00;1.00;;;;;18.99;58.85;101445.81;4963216;28;45444;-86
2021/08/09 04:09:05;;;;;;;;;2.00;1.00;;;;;19.04;58.51;101443.75;4972180;28;45413;-87
2021/08/09 04:11:31;;;;;;;;;2.25;1.00;;;;;19.04;58.84;101443.75;4981320;28;45204;-84
2021/08/09 04:13:57;;;;;;;;;1.00;1.00;;;;;19.03;58.69;101444.72;4982084;28;45283;-87
2021/08/09 04:16:23;;;;;;;;;1.75;1.75;;;;;19.01;58.28;101438.63;4973679;28;45369;-84
2021/08/09 04:18:48;;;;;;;;;1.00;1.00;;;;;19.05;58.46;101452.59;4962117;28;46031;-84
2021/08/09 04:21:13;;;;;;;;;1.50;1.50;;;;;19.01;58.43;101455.44;4963077;28;45226;-85
2021/08/09 04:23:39;;;;;;;;;1.00;1.00;;;;;19.03;58.82;101451.84;4977852;28;45229;-84
2021/08/09 04:26:04;;;;;;;;;0.75;0.75;;;;;19.03;58.36;101459.81;4964235;28;46418;-82
2021/08/09 04:28:29;;;;;;;;;3.00;3.00;;;;;19.01;58.84;101459.94;4981764;28;45228;-83
2021/08/09 04:30:55;;;;;;;;;0.75;0.75;;;;;19.03;58.37;101467.81;4981992;28;45211;-82
2021/08/09 04:33:20;;;;;;;;;3.00;2.00;;;;;19.02;58.59;101472.28;4980217;28;45229;-82
2021/08/09 04:35:46;;;;;;;;;3.75;2.00;;;;;19.05;58.13;101468.59;4980219;28;45657;-88
2021/08/09 04:38:11;;;;;;;;;4.00;2.00;;;;;19.03;58.62;101473.16;4980861;28;46148;-86
2021/08/09 04:40:37;;;;;;;;;1.25;1.00;;;;;18.99;58.79;101478.66;4981350;28;45348;-80
2021/08/09 04:43:02;;;;;;;;;2.00;2.00;;;;;18.94;58.44;101474.53;4981592;28;45302;-81
2021/08/09 04:45:28;;;;;;;;;3.00;3.00;;;;;18.92;58.94;101479.06;4964053;28;47069;-92
2021/08/09 04:47:53;;;;;;;;;1.00;1.00;;;;;18.85;58.84;101476.78;4967608;28;46741;-92
2021/08/09 04:50:18;;;;;;;;;1.25;1.00;;;;;18.83;59.01;101484.00;4967903;28;45486;-89
2021/08/09 04:52:44;;;;;;;;;2.75;1.75;;;;;18.83;58.95;101488.47;4968197;28;45488;-88
2021/08/09 04:55:10;;;;;;;;;1.00;1.00;;;;;18.83;58.95;101491.13;4980037;28;47112;-87
2021/08/09 04:57:36;;;;;;;;;2.75;2.75;;;;;18.82;59.20;101487.59;4981278;28;46373;-85
2021/08/09 05:00:03;;;;;;;;;1.50;1.50;;;;;18.85;58.67;101486.56;4973998;28;45222;-85
2021/08/09 05:02:28;;;;;;;;;1.75;1.75;;;;;18.87;58.67;101484.66;4967299;28;45276;-85
2021/08/09 05:04:54;;;;;;;;;1.00;1.00;;;;;18.91;58.68;101488.03;4963163;28;45515;-92
2021/08/09 05:07:19;;;;;;;;;4.00;2.50;;;;;18.92;58.78;101481.75;4976829;28;46712;-92
2021/08/09 05:09:44;;;;;;;;;2.25;1.00;;;;;18.91;58.72;101486.22;4949391;28;45220;-93
2021/08/09 05:12:10;;;;;;;;;2.75;2.00;;;;;18.91;59.35;101488.91;4975475;28;45563;-82
2021/08/09 05:14:35;;;;;;;;;1.00;1.00;;;;;18.86;58.73;101491.81;4955255;28;46382;-79
2021/08/09 05:17:01;;;;;;;;;3.00;2.00;;;;;18.86;59.07;101485.63;4977822;28;45702;-79
2021/08/09 05:19:26;;;;;;;;;2.25;1.75;;;;;18.88;58.75;101492.59;4975019;28;45376;-79
2021/08/09 05:21:51;;;;;;;;;1.75;1.75;;;;;18.89;59.02;101496.94;4976756;28;45435;-79
2021/08/09 05:24:17;;;;;;;;;1.75;1.00;;;;;18.94;58.72;101503.84;4944863;28;45820;-79
2021/08/09 05:26:42;;;;;;;;;2.25;2.25;;;;;18.95;59.18;101492.22;4950489;28;48024;-79
2021/08/09 05:29:08;;;;;;;;;3.00;2.00;;;;;19.01;58.85;101494.56;4971376;28;45484;-78
2021/08/09 05:31:33;;;;;;;;;2.75;1.25;;;;;19.04;58.96;101489.03;4960796;28;45413;-78
2021/08/09 05:34:00;;;;;;;;;1.00;1.00;;;;;19.05;58.80;101490.75;4944308;28;46734;-78
2021/08/09 05:36:26;;;;;;;;;3.00;2.00;;;;;19.09;58.69;101488.75;4965473;28;45411;-78
2021/08/09 05:38:51;;;;;;;;;2.00;2.00;;;;;19.12;58.57;101488.59;4973066;28;45536;-77
2021/08/09 05:41:17;;;;;;;;;3.00;2.00;;;;;19.15;58.53;101488.44;4951210;28;45386;-77
2021/08/09 05:43:42;;;;;;;;;3.00;3.00;;;;;19.17;58.37;101499.00;4970005;28;45488;-77
2021/08/09 05:46:07;;;;;;;;;3.25;3.00;;;;;19.19;58.26;101495.31;4943746;28;48244;-78
2021/08/09 05:48:34;;;;;;;;;3.25;3.25;;;;;19.21;58.61;101501.41;4961259;28;45394;-78
2021/08/09 05:50:59;;;;;;;;;4.00;4.00;;;;;19.25;58.41;101502.09;4964034;28;45427;-77
2021/08/09 05:53:28;;;;;;;;;3.25;3.00;;;;;19.26;58.27;101502.97;4969167;28;45516;-77
2021/08/09 05:55:54;;;;;;;;;3.50;3.50;;;;;19.28;58.25;101504.59;4963222;28;45423;-77
2021/08/09 05:58:20;;;;;;;;;3.50;3.25;;;;;19.31;58.28;101512.41;4952770;28;45659;-78
2021/08/09 06:00:46;;;;;;;;;3.75;3.75;;;;;19.32;58.35;101511.47;4960875;28;45324;-78
2021/08/09 06:03:16;;;;;;;;;3.75;2.50;;;;;19.34;58.26;101504.22;4961100;28;45434;-77
2021/08/09 06:05:41;;;;;;;;;3.50;3.00;;;;;19.37;58.07;101502.34;4960662;28;47244;-76
2021/08/09 06:08:07;;;;;;;;;3.00;2.00;;;;;19.38;58.08;101506.72;4977927;28;45416;-75
2021/08/09 06:10:32;;;;;;;;;3.75;3.00;;;;;19.38;58.28;101504.06;4980097;28;45405;-79
2021/08/09 06:12:58;;;;;;;;;4.00;4.00;;;;;19.40;57.84;101507.50;4962870;28;46019;-78
2021/08/09 06:15:23;;;;;;;;;6.75;4.00;;;;;19.42;58.10;101505.59;4979987;28;45339;-79
2021/08/09 06:17:48;;;;;;;;;4.75;3.00;;;;;19.44;58.27;101509.03;4980341;28;45428;-79
2021/08/09 06:20:14;;;;;;;;;5.00;4.00;;;;;19.44;57.91;101509.88;4967033;28;45453;-78
2021/08/09 06:22:39;;;;;;;;;5.00;3.50;;;;;19.47;58.19;101516.84;4963621;28;45267;-76
2021/08/09 06:25:05;;;;;;;;;4.00;3.00;;;;;19.49;57.92;101522.94;4969911;28;45705;-77
2021/08/09 06:27:30;;;;;;;;;3.00;3.00;;;;;19.49;58.19;101519.41;4967904;28;45545;-77
2021/08/09 06:29:56;;;;;;;;;5.00;2.00;;;;;19.50;58.25;101518.47;4960827;28;45294;-77
2021/08/09 06:32:23;;;;;;;;;4.50;4.50;;;;;19.47;58.09;101521.31;4943293;28;47392;-76
2021/08/09 06:34:48;;;;;;;;;3.25;3.25;;;;;19.50;58.22;101532.66;4944510;28;47226;-77
2021/08/09 06:37:14;;;;;;;;;2.25;2.25;;;;;19.47;57.78;101523.97;4973379;28;45247;-78
2021/08/09 06:39:39;;;;;;;;;4.00;3.75;;;;;19.48;57.72;101529.25;4943302;28;45504;-80
2021/08/09 06:42:05;;;;;;;;;3.00;3.00;;;;;19.47;57.77;101538.16;4962952;28;45244;-79
2021/08/09 06:44:32;;;;;;;;;4.00;3.00;;;;;19.45;58.39;101542.75;4978245;28;46097;-78
2021/08/09 06:46:57;;;;;;;;;3.25;3.25;;;;;19.43;58.68;101544.63;4964240;28;45481;-80
2021/08/09 06:49:23;;;;;;;;;2.75;2.75;;;;;19.42;58.21;101538.44;4973915;28;45344;-79
2021/08/09 06:51:49;;;;;;;;;4.00;3.00;;;;;19.40;58.23;101539.47;4976767;28;45345;-80
2021/08/09 06:54:14;;;;;;;;;2.25;2.25;;;;;19.38;59.15;101550.25;4964062;28;48397;-79
2021/08/09 06:56:39;;;;;;;;;2.00;2.00;;;;;19.38;58.59;101549.38;4983263;28;45408;-79
2021/08/09 06:59:05;;;;;;;;;2.75;2.00;;;;;19.39;58.38;101548.41;4983234;28;45295;-79
2021/08/09 07:01:30;;;;;;;;;2.00;2.00;;;;;19.42;58.13;101550.91;4982274;28;45556;-81
2021/08/09 07:03:56;;;;;;;;;3.00;2.25;;;;;19.44;58.73;101543.66;4970877;28;47930;-83
2021/08/09 07:06:23;;;;;;;;;4.00;3.00;;;;;19.45;58.65;101546.28;4946140;28;45367;-81
2021/08/09 07:08:49;;;;;;;;;4.25;3.25;;;;;19.43;58.79;101544.63;4945999;28;45193;-81
2021/08/09 07:11:15;;;;;;;;;2.00;2.00;;;;;19.42;58.72;101546.44;4946377;28;47061;-81
2021/08/09 07:13:40;;;;;;;;;4.00;2.50;;;;;19.42;58.51;101548.25;4963588;28;45507;-81
2021/08/09 07:16:06;;;;;;;;;7.50;4.25;;;;;19.44;59.02;101546.34;4963736;28;45188;-81
2021/08/09 07:18:32;;;;;;;;;2.00;1.50;;;;;19.47;59.37;101542.63;4963635;28;45445;-81
2021/08/09 07:21:00;;;;;;;;;2.25;2.25;;;;;19.47;58.66;101542.63;4963763;28;45548;-82
2021/08/09 07:23:25;;;;;;;;;7.00;3.75;;;;;19.45;58.83;101543.59;4970234;28;45546;-81
2021/08/09 07:25:51;;;;;;;;;2.75;2.75;;;;;19.47;59.10;101550.63;4982422;28;45280;-81
2021/08/09 07:28:16;;;;;;;;;3.00;1.50;;;;;19.50;59.05;101555.78;4965420;28;45392;-81
2021/08/09 07:30:41;;;;;;;;;2.50;2.50;;;;;19.52;58.78;101552.09;4982529;28;45218;-81
2021/08/09 07:33:07;;;;;;;;;2.00;2.00;;;;;19.53;59.13;101556.47;4982813;28;45545;-81
2021/08/09 07:35:33;;;;;;;;;2.50;2.50;;;;;19.53;59.54;101545.78;4966324;28;45319;-81
2021/08/09 07:37:58;;;;;;;;;2.50;2.50;;;;;19.54;59.15;101547.53;4942658;28;45252;-81
2021/08/09 07:40:24;;;;;;;;;5.50;3.00;;;;;19.56;60.33;101545.63;4975858;28;45619;-81
2021/08/09 07:42:49;;;;;;;;;1.00;1.00;;;;;19.55;59.45;101556.38;4982605;28;45187;-81
2021/08/09 07:45:15;;;;;;;;;2.00;2.00;;;;;19.54;59.59;101549.31;4982602;28;45203;-81
2021/08/09 07:47:40;;;;;;;;;3.25;2.75;;;;;19.58;59.45;101553.56;4979183;28;45499;-81
2021/08/09 07:50:07;;;;;;;;;2.00;2.00;;;;;19.59;59.44;101551.72;4957190;28;46815;-81
2021/08/09 07:52:32;;;;;;;;;3.00;3.00;;;;;19.62;59.83;101560.41;4978094;28;46334;-82
2021/08/09 07:54:57;;;;;;;;;4.25;3.00;;;;;19.65;59.79;101567.38;4961824;28;45456;-82
2021/08/09 07:57:23;;;;;;;;;3.00;3.00;;;;;19.65;59.86;101554.03;4965472;28;45949;-82
2021/08/09 07:59:48;;;;;;;;;6.00;3.75;;;;;19.67;59.89;101558.34;4982259;28;45542;-81
2021/08/09 08:02:14;;;;;;;;;6.00;4.25;;;;;19.67;61.23;101562.81;4981472;28;45449;-79
2021/08/09 08:04:42;;;;;;;;;5.50;4.00;;;;;19.66;60.92;101563.75;4956028;28;45543;-80
2021/08/09 08:07:08;;;;;;;;;8.00;6.75;;;;;19.69;61.28;101560.91;4966314;28;45372;-80
2021/08/09 08:09:34;;;;;;;;;5.75;5.00;;;;;19.67;60.65;101569.00;4982131;28;45234;-79
2021/08/09 08:12:01;;;;;;;;;6.00;5.00;;;;;19.65;60.47;101570.91;4977046;28;45666;-79
2021/08/09 08:14:26;;;;;;;;;5.00;3.50;;;;;19.63;60.67;101572.78;4962857;28;45379;-79
2021/08/09 08:16:51;;;;;;;;;4.50;4.00;;;;;19.61;60.69;101569.34;4966302;28;45615;-79
2021/08/09 08:19:17;;;;;;;;;6.25;5.00;;;;;19.60;60.57;101569.44;4973693;28;45416;-79
2021/08/09 08:21:42;;;;;;;;;3.25;3.25;;;;;19.60;60.72;101570.31;4964861;28;48019;-80
2021/08/09 08:24:07;;;;;;;;;3.75;3.75;;;;;19.63;60.34;101564.78;4948314;28;45633;-80
2021/08/09 08:26:33;;;;;;;;;5.25;3.25;;;;;19.68;60.57;101572.50;4963738;28;45376;-80
2021/08/09 08:28:58;;;;;;;;;6.25;5.00;;;;;19.67;60.47;101570.81;4973586;28;45285;-80
2021/08/09 08:31:23;;;;;;;;;6.25;5.50;;;;;19.67;60.57;101576.13;4973625;28;45305;-81
2021/08/09 08:33:49;;;;;;;;;5.00;5.00;;;;;19.65;60.46;101567.38;4975305;28;45381;-80
2021/08/09 08:36:14;;;;;;;;;5.50;4.25;;;;;19.62;60.47;101570.22;4962393;28;45308;-80
2021/08/09 08:38:39;;;;;;;;;10.25;7.00;;;;;19.60;60.61;101572.13;4965177;28;45670;-81
2021/08/09 08:41:06;;;;;;;;;8.25;8.25;;;;;19.62;60.75;101570.22;4962272;28;45637;-80
2021/08/09 08:43:32;;;;;;;;;9.00;7.75;;;;;19.60;60.66;101566.78;4976257;28;45353;-81
2021/08/09 08:46:02;;;;;;;;;10.00;8.50;;;;;19.58;60.98;101574.00;4973945;28;45216;-80
2021/08/09 08:48:30;;;;;;;;;7.75;7.75;;;;;19.53;60.83;101577.78;4961923;28;45292;-81
2021/08/09 08:50:57;;;;;;;;;9.00;5.00;;;;;19.48;60.87;101579.88;4964959;28;45415;-81
2021/08/09 08:53:23;;;;;;;;;5.50;4.25;;;;;19.51;60.77;101578.81;4963855;28;45352;-81
2021/08/09 08:55:48;;;;;;;;;4.25;4.25;;;;;19.48;60.90;101582.56;4981302;28;45548;-81
2021/08/09 08:58:13;;;;;;;;;4.50;4.00;;;;;19.47;61.41;101583.50;4980960;28;45458;-78
2021/08/09 09:00:42;;;;;;;;;5.00;4.25;;;;;19.47;61.03;101583.50;4979864;28;45363;-78
2021/08/09 09:03:22;;;;;;;;;5.00;5.00;;;;;19.47;61.54;101585.28;4974890;28;45612;-78
2021/08/09 09:06:02;;;;;;;;;2.75;2.75;;;;;19.48;61.18;101598.53;4962189;28;45192;-78
2021/08/09 09:08:44;;;;;;;;;6.25;3.00;;;;;19.44;60.97;101605.84;4971512;28;45466;-78
2021/08/09 09:11:12;;;;;;;;;4.75;4.25;;;;;19.44;61.67;101594.31;4961557;28;45445;-78
2021/08/09 09:13:52;;;;;;;;;6.50;5.25;;;;;19.41;61.36;101611.34;4961837;28;45659;-78
2021/08/09 09:16:17;;;;;;;;;4.25;3.75;;;;;19.38;61.39;101610.69;4951962;28;45451;-78
2021/08/09 09:18:44;;;;;;;;;2.50;2.25;;;;;19.38;61.70;101616.88;4979831;28;45414;-78
2021/08/09 09:21:36;;;;;;;;;3.00;3.00;;;;;19.42;61.38;101617.53;4980338;28;46629;-78
2021/08/09 09:24:18;;;;;;;;;4.25;2.00;;;;;19.44;61.43;101624.50;4976921;28;45187;-78
2021/08/09 09:27:09;;;;;;;;;5.00;4.00;;;;;19.47;62.10;101620.81;4981098;28;45511;-77
2021/08/09 09:29:40;;;;;;;;;2.00;2.00;;;;;19.53;62.17;101622.28;4980833;28;45251;-77
2021/08/09 09:32:19;;;;;;;;;2.00;2.00;;;;;19.57;61.30;101618.47;4980809;28;45788;-77
2021/08/09 09:34:48;;;;;;;;;4.00;4.00;;;;;19.63;61.35;101620.78;4966510;28;45249;-77
2021/08/09 09:37:37;;;;;;;;;6.75;3.00;;;;;19.68;61.50;101618.72;4979996;28;45501;-77
2021/08/09 09:40:09;;;;;;;;;4.75;3.00;;;;;19.70;61.50;101618.63;4980505;28;45553;-77
2021/08/09 09:42:36;;;;;;;;;2.50;2.00;;;;;19.75;61.37;101621.91;4980983;28;45417;-77
2021/08/09 09:45:18;;;;;;;;;2.00;2.00;;;;;19.77;61.42;101619.13;4980683;28;45180;-77
2021/08/09 09:47:44;;;;;;;;;3.00;2.25;;;;;19.81;61.15;101617.13;4980083;28;45487;-77
2021/08/09 09:50:24;;;;;;;;;3.50;3.00;;;;;19.79;60.86;101620.75;4980767;28;45506;-77
2021/08/09 09:52:49;;;;;;;;;3.75;2.50;;;;;19.79;60.84;101626.09;4979000;28;45439;-78
2021/08/09 09:55:15;;;;;;;;;3.75;3.00;;;;;19.79;60.84;101620.75;4980064;28;45254;-77
2021/08/09 09:57:43;;;;;;;;;3.50;3.00;;;;;19.81;60.67;101623.31;4980108;28;45157;-77
2021/08/09 10:00:12;;;;;;;;;5.75;3.75;;;;;19.85;60.92;101624.03;4973806;28;45496;-77
2021/08/09 10:02:45;;;;;;;;;3.50;3.00;;;;;19.89;61.22;101620.22;4960969;28;45517;-77
2021/08/09 10:05:12;;;;;;;;;3.75;3.00;;;;;19.93;60.50;101621.75;4973497;28;45337;-77
2021/08/09 10:07:39;;;;;;;;;3.75;3.25;;;;;19.95;60.48;101622.50;4969292;28;45439;-78
2021/08/09 10:10:08;;;;;;;;;4.00;4.00;;;;;20.02;61.56;101625.69;4979522;28;45328;-78
2021/08/09 10:12:36;;;;;;;;;3.00;2.75;;;;;20.09;60.61;101626.19;4971441;28;46327;-78
2021/08/09 10:15:02;;;;;;;;;3.75;3.75;;;;;20.11;60.48;101629.63;4973698;28;45515;-78
2021/08/09 10:17:30;;;;;;;;;6.25;3.25;;;;;20.15;60.32;101641.00;4960648;28;45209;-78
2021/08/09 10:20:00;;;;;;;;;4.00;3.00;;;;;20.16;60.32;101632.03;4962083;28;45381;-78
2021/08/09 10:22:26;;;;;;;;;3.75;3.25;;;;;20.18;60.50;101614.97;4951181;28;47269;-78
2021/08/09 10:24:53;;;;;;;;;3.50;3.00;;;;;20.22;60.35;101626.34;4962157;28;45784;-78
2021/08/09 10:27:46;;;;;;;;;4.50;3.00;;;;;20.28;60.18;101630.44;4976061;28;45373;-78
2021/08/09 10:30:13;;;;;;;;;2.75;2.75;;;;;20.25;59.57;101620.78;4962002;28;45525;-78
2021/08/09 10:32:57;;;;;;;;;6.25;3.75;;;;;20.22;59.51;101610.31;4960632;28;45289;-78
2021/08/09 10:35:35;;;;;;;;;5.75;5.50;;;;;20.18;59.54;101612.31;4951799;28;45251;-78
2021/08/09 10:38:22;;;;;;;;;4.00;3.00;;;;;20.10;59.62;101618.06;4974014;28;45393;-77
2021/08/09 10:41:07;;;;;;;;;5.75;3.50;;;;;20.10;59.69;101620.75;4979511;28;45468;-77
2021/08/09 10:43:33;;;;;;;;;3.00;2.25;;;;;20.10;59.50;101604.72;4964701;28;46799;-77
2021/08/09 10:45:58;;;;;;;;;4.00;2.00;;;;;20.16;60.16;101622.22;4960450;28;45418;-77
2021/08/09 10:48:42;;;;;;;;;4.25;4.25;;;;;20.22;59.69;101616.50;4960586;28;45820;-77
2021/08/09 10:51:07;;;;;;;;;5.00;4.50;;;;;20.19;59.52;101606.03;4977611;28;45524;-82
2021/08/09 10:53:35;;;;;;;;;3.25;3.25;;;;;20.26;59.44;101608.31;4969838;28;45451;-82
2021/08/09 10:56:02;;;;;;;;;5.25;3.25;;;;;20.21;59.27;101601.47;4967077;28;45362;-82
2021/08/09 10:58:43;;;;;;;;;2.75;2.75;;;;;20.28;59.19;101609.94;4978058;28;45338;-82
2021/08/09 11:01:09;;;;;;;;;4.25;4.00;;;;;20.30;58.93;101607.16;4971266;28;45359;-82
2021/08/09 11:03:34;;;;;;;;;1.75;1.75;;;;;20.23;59.07;101606.69;4960317;28;45463;-82
2021/08/09 11:06:38;;;;;;;;;3.00;2.00;;;;;20.29;59.12;101613.47;4959927;28;45453;-82
2021/08/09 11:09:35;;;;;;;;;2.50;2.50;;;;;20.32;59.57;101618.63;4976462;28;45411;-81
2021/08/09 11:12:24;;;;;;;;;1.50;1.50;;;;;20.36;59.59;101609.47;4964809;28;45448;-81
2021/08/09 11:15:10;;;;;;;;;1.00;1.00;;;;;20.43;58.96;101613.50;4964221;28;46283;-81
2021/08/09 11:17:38;;;;;;;;;2.00;2.00;;;;;20.40;59.33;101608.31;4979328;28;45593;-81
2021/08/09 11:20:12;;;;;;;;;5.25;3.00;;;;;20.39;58.68;101603.09;4964325;28;45503;-81
2021/08/09 11:22:39;;;;;;;;;4.00;3.00;;;;;20.35;58.66;101602.41;4960075;28;45971;-81
2021/08/09 11:25:30;;;;;;;;;1.50;1.50;;;;;20.33;58.65;101604.31;4950666;28;48182;-81
2021/08/09 11:28:01;;;;;;;;;1.75;1.75;;;;;20.31;58.67;101607.09;4960327;28;45243;-81
2021/08/09 11:30:39;;;;;;;;;2.75;2.00;;;;;20.28;58.33;101598.41;4963291;28;45335;-81